sensor_id;sensor_type;location;lat;lon;timestamp;temperature;humidity
47616;DHT22;69146;52.266;7.000;2023-08-08T00:00:23;14.10;99.90
47616;DHT22;69146;52.266;7.000;2023-08-08T00:03:08;14.10;99.90
47616;DHT22;69146;52.266;7.000;2023-08-08T00:05:52;14.20;99.90
47616;DHT22;69146;52.266;7.000;2023-08-08T00:08:37;14.20;99.90
47616;DHT22;69146;52.266;7.000;2023-08-08T00:11:21;14.20;99.90
47616;DHT22;69146;52.266;7.000;2023-08-08T00:14:07;14.20;99.90
47616;DHT22;69146;52.266;7.000;2023-08-08T00:16:51;14.10;99.90
47616;DHT22;69146;52.266;7.000;2023-08-08T00:19:36;14.10;99.90
47616;DHT22;69146;52.266;7.000;2023-08-08T00:22:21;14.20;99.90
47616;DHT22;69146;52.266;7.000;2023-08-08T00:25:05;14.10;99.90
47616;DHT22;69146;52.266;7.000;2023-08-08T00:27:50;14.10;99.90
47616;DHT22;69146;52.266;7.000;2023-08-08T00:30:36;14.10;99.90
47616;DHT22;69146;52.266;7.000;2023-08-08T00:33:21;14.10;99.90
47616;DHT22;69146;52.266;7.000;2023-08-08T00:36:05;14.10;99.90
47616;DHT22;69146;52.266;7.000;2023-08-08T00:38:50;14.10;99.90
47616;DHT22;69146;52.266;7.000;2023-08-08T00:41:34;14.10;99.90
47616;DHT22;69146;52.266;7.000;2023-08-08T00:44:18;14.10;99.90
47616;DHT22;69146;52.266;7.000;2023-08-08T00:47:04;14.00;99.90
47616;DHT22;69146;52.266;7.000;2023-08-08T00:49:49;14.00;99.90
47616;DHT22;69146;52.266;7.000;2023-08-08T00:52:34;14.00;99.90
47616;DHT22;69146;52.266;7.000;2023-08-08T00:55:19;13.90;99.90
47616;DHT22;69146;52.266;7.000;2023-08-08T00:58:03;13.90;99.90
47616;DHT22;69146;52.266;7.000;2023-08-08T01:00:48;14.00;99.90
47616;DHT22;69146;52.266;7.000;2023-08-08T01:03:34;14.00;99.90
47616;DHT22;69146;52.266;7.000;2023-08-08T01:06:19;14.00;99.90
47616;DHT22;69146;52.266;7.000;2023-08-08T01:09:09;14.00;99.90
47616;DHT22;69146;52.266;7.000;2023-08-08T01:11:53;14.00;99.90
47616;DHT22;69146;52.266;7.000;2023-08-08T01:14:38;14.10;99.90
47616;DHT22;69146;52.266;7.000;2023-08-08T01:17:24;14.10;99.90
47616;DHT22;69146;52.266;7.000;2023-08-08T01:20:11;14.10;99.90
47616;DHT22;69146;52.266;7.000;2023-08-08T01:23:00;14.10;99.90
47616;DHT22;69146;52.266;7.000;2023-08-08T01:25:49;14.10;99.90
47616;DHT22;69146;52.266;7.000;2023-08-08T01:28:34;14.10;99.90
47616;DHT22;69146;52.266;7.000;2023-08-08T01:31:18;14.10;99.90
47616;DHT22;69146;52.266;7.000;2023-08-08T01:34:03;14.10;99.90
47616;DHT22;69146;52.266;7.000;2023-08-08T01:36:48;14.20;99.90
47616;DHT22;69146;52.266;7.000;2023-08-08T01:39:33;14.20;99.90
47616;DHT22;69146;52.266;7.000;2023-08-08T01:42:20;14.10;99.90
47616;DHT22;69146;52.266;7.000;2023-08-08T01:45:05;14.20;99.90
47616;DHT22;69146;52.266;7.000;2023-08-08T01:47:52;14.20;99.90
47616;DHT22;69146;52.266;7.000;2023-08-08T01:50:37;14.20;99.90
47616;DHT22;69146;52.266;7.000;2023-08-08T01:53:22;14.20;99.90
47616;DHT22;69146;52.266;7.000;2023-08-08T01:56:06;14.20;99.90
47616;DHT22;69146;52.266;7.000;2023-08-08T01:58:52;14.20;99.90
47616;DHT22;69146;52.266;7.000;2023-08-08T02:01:37;14.30;99.90
47616;DHT22;69146;52.266;7.000;2023-08-08T02:04:21;14.20;99.90
47616;DHT22;69146;52.266;7.000;2023-08-08T02:07:06;14.30;99.90
47616;DHT22;69146;52.266;7.000;2023-08-08T02:09:50;14.20;99.90
47616;DHT22;69146;52.266;7.000;2023-08-08T02:12:34;14.20;99.90
47616;DHT22;69146;52.266;7.000;2023-08-08T02:15:20;14.20;99.90
47616;DHT22;69146;52.266;7.000;2023-08-08T02:18:05;14.10;99.90
47616;DHT22;69146;52.266;7.000;2023-08-08T02:20:49;14.10;99.90
47616;DHT22;69146;52.266;7.000;2023-08-08T02:23:34;14.10;99.90
47616;DHT22;69146;52.266;7.000;2023-08-08T02:26:18;14.20;99.90
47616;DHT22;69146;52.266;7.000;2023-08-08T02:29:03;14.10;99.90
47616;DHT22;69146;52.266;7.000;2023-08-08T02:31:49;14.00;99.90
47616;DHT22;69146;52.266;7.000;2023-08-08T02:34:33;14.00;99.90
47616;DHT22;69146;52.266;7.000;2023-08-08T02:37:18;13.90;99.90
47616;DHT22;69146;52.266;7.000;2023-08-08T02:40:03;13.90;99.90
47616;DHT22;69146;52.266;7.000;2023-08-08T02:42:48;13.90;99.90
47616;DHT22;69146;52.266;7.000;2023-08-08T02:45:33;14.00;99.90
47616;DHT22;69146;52.266;7.000;2023-08-08T02:48:19;14.00;99.90
47616;DHT22;69146;52.266;7.000;2023-08-08T02:51:03;14.10;99.90
47616;DHT22;69146;52.266;7.000;2023-08-08T02:53:48;14.00;99.90
47616;DHT22;69146;52.266;7.000;2023-08-08T02:56:32;13.90;99.90
47616;DHT22;69146;52.266;7.000;2023-08-08T02:59:17;13.90;99.90
47616;DHT22;69146;52.266;7.000;2023-08-08T03:02:01;13.90;99.90
47616;DHT22;69146;52.266;7.000;2023-08-08T03:04:48;13.80;99.90
47616;DHT22;69146;52.266;7.000;2023-08-08T03:07:33;13.80;99.90
47616;DHT22;69146;52.266;7.000;2023-08-08T03:10:18;13.80;99.90
47616;DHT22;69146;52.266;7.000;2023-08-08T03:13:02;13.80;99.90
47616;DHT22;69146;52.266;7.000;2023-08-08T03:15:47;13.80;99.90
47616;DHT22;69146;52.266;7.000;2023-08-08T03:18:31;13.80;99.90
47616;DHT22;69146;52.266;7.000;2023-08-08T03:21:17;13.80;99.90
47616;DHT22;69146;52.266;7.000;2023-08-08T03:24:01;13.90;99.90
47616;DHT22;69146;52.266;7.000;2023-08-08T03:26:46;13.90;99.90
47616;DHT22;69146;52.266;7.000;2023-08-08T03:29:30;13.90;99.90
47616;DHT22;69146;52.266;7.000;2023-08-08T03:32:15;13.90;99.90
47616;DHT22;69146;52.266;7.000;2023-08-08T03:34:59;13.90;99.90
47616;DHT22;69146;52.266;7.000;2023-08-08T03:37:45;13.90;99.90
47616;DHT22;69146;52.266;7.000;2023-08-08T03:40:29;13.90;99.90
47616;DHT22;69146;52.266;7.000;2023-08-08T03:43:14;13.90;99.90
47616;DHT22;69146;52.266;7.000;2023-08-08T03:45:59;13.90;99.90
47616;DHT22;69146;52.266;7.000;2023-08-08T03:48:43;13.90;99.90
47616;DHT22;69146;52.266;7.000;2023-08-08T03:51:28;13.90;99.90
47616;DHT22;69146;52.266;7.000;2023-08-08T03:54:13;13.90;99.90
47616;DHT22;69146;52.266;7.000;2023-08-08T03:56:58;13.90;99.90
47616;DHT22;69146;52.266;7.000;2023-08-08T03:59:42;13.90;99.90
47616;DHT22;69146;52.266;7.000;2023-08-08T04:02:27;13.80;99.90
47616;DHT22;69146;52.266;7.000;2023-08-08T04:05:12;13.80;99.90
47616;DHT22;69146;52.266;7.000;2023-08-08T04:07:56;13.80;99.90
47616;DHT22;69146;52.266;7.000;2023-08-08T04:10:43;13.80;99.90
47616;DHT22;69146;52.266;7.000;2023-08-08T04:13:27;13.80;99.90
47616;DHT22;69146;52.266;7.000;2023-08-08T04:16:12;13.80;99.90
47616;DHT22;69146;52.266;7.000;2023-08-08T04:18:56;13.80;99.90
47616;DHT22;69146;52.266;7.000;2023-08-08T04:21:41;13.80;99.90
47616;DHT22;69146;52.266;7.000;2023-08-08T04:24:25;13.80;99.90
47616;DHT22;69146;52.266;7.000;2023-08-08T04:27:11;13.80;99.90
47616;DHT22;69146;52.266;7.000;2023-08-08T04:29:55;13.70;99.90
47616;DHT22;69146;52.266;7.000;2023-08-08T04:32:40;13.70;99.90
47616;DHT22;69146;52.266;7.000;2023-08-08T04:35:24;13.80;99.90
47616;DHT22;69146;52.266;7.000;2023-08-08T04:38:09;13.80;99.90
47616;DHT22;69146;52.266;7.000;2023-08-08T04:40:53;13.80;99.90
47616;DHT22;69146;52.266;7.000;2023-08-08T04:43:39;13.80;99.90
47616;DHT22;69146;52.266;7.000;2023-08-08T04:46:23;13.80;99.90
47616;DHT22;69146;52.266;7.000;2023-08-08T04:49:08;13.80;99.90
47616;DHT22;69146;52.266;7.000;2023-08-08T04:51:52;13.80;99.90
47616;DHT22;69146;52.266;7.000;2023-08-08T04:54:37;13.80;99.90
47616;DHT22;69146;52.266;7.000;2023-08-08T04:57:21;13.90;99.90
47616;DHT22;69146;52.266;7.000;2023-08-08T05:00:08;13.90;99.90
47616;DHT22;69146;52.266;7.000;2023-08-08T05:02:53;13.90;99.90
47616;DHT22;69146;52.266;7.000;2023-08-08T05:05:37;13.90;99.90
47616;DHT22;69146;52.266;7.000;2023-08-08T05:08:21;14.00;99.90
47616;DHT22;69146;52.266;7.000;2023-08-08T05:11:06;14.00;99.90
47616;DHT22;69146;52.266;7.000;2023-08-08T05:13:50;14.10;99.90
47616;DHT22;69146;52.266;7.000;2023-08-08T05:16:36;14.00;99.90
47616;DHT22;69146;52.266;7.000;2023-08-08T05:19:22;14.10;99.90
47616;DHT22;69146;52.266;7.000;2023-08-08T05:22:06;14.10;99.90
47616;DHT22;69146;52.266;7.000;2023-08-08T05:24:50;14.10;99.90
47616;DHT22;69146;52.266;7.000;2023-08-08T05:27:35;14.20;99.90
47616;DHT22;69146;52.266;7.000;2023-08-08T05:30:19;14.30;99.90
47616;DHT22;69146;52.266;7.000;2023-08-08T05:33:05;14.40;99.90
47616;DHT22;69146;52.266;7.000;2023-08-08T05:35:49;14.40;99.90
47616;DHT22;69146;52.266;7.000;2023-08-08T05:38:34;14.50;99.90
47616;DHT22;69146;52.266;7.000;2023-08-08T05:41:18;14.50;99.90
47616;DHT22;69146;52.266;7.000;2023-08-08T05:44:03;14.50;99.90
47616;DHT22;69146;52.266;7.000;2023-08-08T05:46:48;14.50;99.90
47616;DHT22;69146;52.266;7.000;2023-08-08T05:49:33;14.60;99.90
47616;DHT22;69146;52.266;7.000;2023-08-08T05:52:17;14.70;99.90
47616;DHT22;69146;52.266;7.000;2023-08-08T05:55:02;14.70;99.90
47616;DHT22;69146;52.266;7.000;2023-08-08T05:57:46;14.70;99.90
47616;DHT22;69146;52.266;7.000;2023-08-08T06:00:31;14.70;99.90
47616;DHT22;69146;52.266;7.000;2023-08-08T06:03:16;14.80;99.90
47616;DHT22;69146;52.266;7.000;2023-08-08T06:06:01;14.80;99.90
47616;DHT22;69146;52.266;7.000;2023-08-08T06:08:49;14.80;99.90
47616;DHT22;69146;52.266;7.000;2023-08-08T06:11:34;14.80;99.90
47616;DHT22;69146;52.266;7.000;2023-08-08T06:14:18;14.90;99.90
47616;DHT22;69146;52.266;7.000;2023-08-08T06:17:03;14.90;99.90
47616;DHT22;69146;52.266;7.000;2023-08-08T06:19:47;14.90;99.90
47616;DHT22;69146;52.266;7.000;2023-08-08T06:22:33;14.90;99.90
47616;DHT22;69146;52.266;7.000;2023-08-08T06:25:17;14.80;99.90
47616;DHT22;69146;52.266;7.000;2023-08-08T06:28:02;14.80;99.90
47616;DHT22;69146;52.266;7.000;2023-08-08T06:30:46;14.80;99.90
47616;DHT22;69146;52.266;7.000;2023-08-08T06:33:30;14.80;99.90
47616;DHT22;69146;52.266;7.000;2023-08-08T06:36:15;14.90;99.90
47616;DHT22;69146;52.266;7.000;2023-08-08T06:39:00;14.90;99.90
47616;DHT22;69146;52.266;7.000;2023-08-08T06:41:45;14.90;99.90
47616;DHT22;69146;52.266;7.000;2023-08-08T06:44:32;14.90;99.90
47616;DHT22;69146;52.266;7.000;2023-08-08T06:47:16;14.90;99.90
47616;DHT22;69146;52.266;7.000;2023-08-08T06:50:01;15.00;99.90
47616;DHT22;69146;52.266;7.000;2023-08-08T06:52:45;15.10;99.90
47616;DHT22;69146;52.266;7.000;2023-08-08T06:55:31;15.20;99.90
47616;DHT22;69146;52.266;7.000;2023-08-08T06:58:16;15.30;99.90
47616;DHT22;69146;52.266;7.000;2023-08-08T07:01:00;15.40;99.90
47616;DHT22;69146;52.266;7.000;2023-08-08T07:03:46;15.60;99.90
47616;DHT22;69146;52.266;7.000;2023-08-08T07:06:31;15.80;99.90
47616;DHT22;69146;52.266;7.000;2023-08-08T07:09:15;15.90;99.90
47616;DHT22;69146;52.266;7.000;2023-08-08T07:12:01;16.00;99.90
47616;DHT22;69146;52.266;7.000;2023-08-08T07:14:46;16.10;99.90
47616;DHT22;69146;52.266;7.000;2023-08-08T07:17:31;16.20;99.90
47616;DHT22;69146;52.266;7.000;2023-08-08T07:20:15;16.20;99.90
47616;DHT22;69146;52.266;7.000;2023-08-08T07:23:00;16.30;99.90
47616;DHT22;69146;52.266;7.000;2023-08-08T07:25:45;16.30;99.90
47616;DHT22;69146;52.266;7.000;2023-08-08T07:28:32;16.60;99.90
47616;DHT22;69146;52.266;7.000;2023-08-08T07:31:16;16.60;99.90
47616;DHT22;69146;52.266;7.000;2023-08-08T07:34:01;16.60;99.90
47616;DHT22;69146;52.266;7.000;2023-08-08T07:36:45;16.60;99.90
47616;DHT22;69146;52.266;7.000;2023-08-08T07:39:30;16.60;99.90
47616;DHT22;69146;52.266;7.000;2023-08-08T07:42:14;16.70;99.90
47616;DHT22;69146;52.266;7.000;2023-08-08T07:45:00;16.70;99.90
47616;DHT22;69146;52.266;7.000;2023-08-08T07:47:45;16.70;99.90
47616;DHT22;69146;52.266;7.000;2023-08-08T07:50:29;16.70;99.90
47616;DHT22;69146;52.266;7.000;2023-08-08T07:53:14;16.80;99.90
47616;DHT22;69146;52.266;7.000;2023-08-08T07:55:58;17.00;99.90
47616;DHT22;69146;52.266;7.000;2023-08-08T07:58:43;17.10;99.90
47616;DHT22;69146;52.266;7.000;2023-08-08T08:01:28;17.20;99.90
47616;DHT22;69146;52.266;7.000;2023-08-08T08:04:13;17.50;99.90
47616;DHT22;69146;52.266;7.000;2023-08-08T08:06:59;17.70;99.90
47616;DHT22;69146;52.266;7.000;2023-08-08T08:09:43;17.60;99.90
47616;DHT22;69146;52.266;7.000;2023-08-08T08:12:29;17.60;99.90
47616;DHT22;69146;52.266;7.000;2023-08-08T08:15:14;17.50;99.90
47616;DHT22;69146;52.266;7.000;2023-08-08T08:18:00;17.60;99.90
47616;DHT22;69146;52.266;7.000;2023-08-08T08:20:44;17.70;99.90
47616;DHT22;69146;52.266;7.000;2023-08-08T08:23:28;17.90;99.90
47616;DHT22;69146;52.266;7.000;2023-08-08T08:26:13;18.00;99.90
47616;DHT22;69146;52.266;7.000;2023-08-08T08:28:57;18.10;99.90
47616;DHT22;69146;52.266;7.000;2023-08-08T08:31:42;18.10;99.90
47616;DHT22;69146;52.266;7.000;2023-08-08T08:34:28;18.30;99.90
47616;DHT22;69146;52.266;7.000;2023-08-08T08:37:12;18.60;99.90
47616;DHT22;69146;52.266;7.000;2023-08-08T08:39:57;18.80;99.90
47616;DHT22;69146;52.266;7.000;2023-08-08T08:42:41;19.00;99.90
47616;DHT22;69146;52.266;7.000;2023-08-08T08:45:26;19.00;99.90
47616;DHT22;69146;52.266;7.000;2023-08-08T08:48:13;18.70;99.90
47616;DHT22;69146;52.266;7.000;2023-08-08T08:50:59;18.70;99.90
47616;DHT22;69146;52.266;7.000;2023-08-08T08:53:44;18.90;99.90
47616;DHT22;69146;52.266;7.000;2023-08-08T08:56:30;19.00;99.90
47616;DHT22;69146;52.266;7.000;2023-08-08T08:59:17;18.90;99.90
47616;DHT22;69146;52.266;7.000;2023-08-08T09:02:01;18.80;99.90
47616;DHT22;69146;52.266;7.000;2023-08-08T09:04:46;19.10;99.90
47616;DHT22;69146;52.266;7.000;2023-08-08T09:07:32;19.30;99.90
47616;DHT22;69146;52.266;7.000;2023-08-08T09:10:17;19.00;99.90
47616;DHT22;69146;52.266;7.000;2023-08-08T09:13:02;18.90;99.90
47616;DHT22;69146;52.266;7.000;2023-08-08T09:15:46;19.10;99.90
47616;DHT22;69146;52.266;7.000;2023-08-08T09:18:31;19.20;99.90
47616;DHT22;69146;52.266;7.000;2023-08-08T09:21:16;19.10;99.90
47616;DHT22;69146;52.266;7.000;2023-08-08T09:24:02;18.90;99.90
47616;DHT22;69146;52.266;7.000;2023-08-08T09:26:46;18.70;99.90
47616;DHT22;69146;52.266;7.000;2023-08-08T09:29:31;18.60;99.90
47616;DHT22;69146;52.266;7.000;2023-08-08T09:32:17;18.70;99.90
47616;DHT22;69146;52.266;7.000;2023-08-08T09:35:02;18.70;99.90
47616;DHT22;69146;52.266;7.000;2023-08-08T09:37:47;18.80;99.90
47616;DHT22;69146;52.266;7.000;2023-08-08T09:40:33;19.10;99.90
47616;DHT22;69146;52.266;7.000;2023-08-08T09:43:18;19.20;99.90
47616;DHT22;69146;52.266;7.000;2023-08-08T09:46:02;19.20;99.90
47616;DHT22;69146;52.266;7.000;2023-08-08T09:48:49;19.20;99.90
47616;DHT22;69146;52.266;7.000;2023-08-08T09:51:34;19.20;99.90
47616;DHT22;69146;52.266;7.000;2023-08-08T09:54:19;19.10;99.90
47616;DHT22;69146;52.266;7.000;2023-08-08T09:57:05;19.10;99.90
47616;DHT22;69146;52.266;7.000;2023-08-08T09:59:50;19.10;99.90
47616;DHT22;69146;52.266;7.000;2023-08-08T10:02:35;19.40;99.90
47616;DHT22;69146;52.266;7.000;2023-08-08T10:05:22;19.40;99.90
47616;DHT22;69146;52.266;7.000;2023-08-08T10:08:06;19.30;99.90
47616;DHT22;69146;52.266;7.000;2023-08-08T10:10:51;19.20;99.90
47616;DHT22;69146;52.266;7.000;2023-08-08T10:13:37;19.20;99.90
47616;DHT22;69146;52.266;7.000;2023-08-08T10:16:22;19.10;99.90
47616;DHT22;69146;52.266;7.000;2023-08-08T10:19:08;19.00;99.90
47616;DHT22;69146;52.266;7.000;2023-08-08T10:21:56;18.40;99.90
47616;DHT22;69146;52.266;7.000;2023-08-08T10:24:41;17.70;99.90
47616;DHT22;69146;52.266;7.000;2023-08-08T10:27:30;17.00;99.90
47616;DHT22;69146;52.266;7.000;2023-08-08T10:30:17;16.70;99.90
47616;DHT22;69146;52.266;7.000;2023-08-08T10:33:01;16.50;99.90
47616;DHT22;69146;52.266;7.000;2023-08-08T10:35:53;16.50;99.90
47616;DHT22;69146;52.266;7.000;2023-08-08T10:38:39;16.70;99.90
47616;DHT22;69146;52.266;7.000;2023-08-08T10:41:25;17.00;99.90
47616;DHT22;69146;52.266;7.000;2023-08-08T10:44:10;17.10;99.90
47616;DHT22;69146;52.266;7.000;2023-08-08T10:46:56;17.30;99.90
47616;DHT22;69146;52.266;7.000;2023-08-08T10:49:41;17.40;99.90
47616;DHT22;69146;52.266;7.000;2023-08-08T10:52:26;17.50;99.90
47616;DHT22;69146;52.266;7.000;2023-08-08T10:55:17;17.60;99.90
47616;DHT22;69146;52.266;7.000;2023-08-08T10:58:04;17.90;99.90
47616;DHT22;69146;52.266;7.000;2023-08-08T11:00:49;18.10;99.90
47616;DHT22;69146;52.266;7.000;2023-08-08T11:03:36;18.20;99.90
47616;DHT22;69146;52.266;7.000;2023-08-08T11:06:21;18.10;99.90
47616;DHT22;69146;52.266;7.000;2023-08-08T11:09:06;18.00;99.90
47616;DHT22;69146;52.266;7.000;2023-08-08T11:11:51;18.20;99.90
47616;DHT22;69146;52.266;7.000;2023-08-08T11:14:36;18.50;99.90
47616;DHT22;69146;52.266;7.000;2023-08-08T11:17:20;18.70;99.90
47616;DHT22;69146;52.266;7.000;2023-08-08T11:20:06;18.80;99.90
47616;DHT22;69146;52.266;7.000;2023-08-08T11:22:52;18.80;99.90
47616;DHT22;69146;52.266;7.000;2023-08-08T11:25:39;18.80;99.90
47616;DHT22;69146;52.266;7.000;2023-08-08T11:28:23;18.60;99.90
47616;DHT22;69146;52.266;7.000;2023-08-08T11:31:10;18.40;99.90
47616;DHT22;69146;52.266;7.000;2023-08-08T11:33:55;17.80;99.90
47616;DHT22;69146;52.266;7.000;2023-08-08T11:36:41;17.00;99.90
47616;DHT22;69146;52.266;7.000;2023-08-08T11:39:26;16.30;99.90
47616;DHT22;69146;52.266;7.000;2023-08-08T11:42:10;15.90;99.90
47616;DHT22;69146;52.266;7.000;2023-08-08T11:44:55;15.80;99.90
47616;DHT22;69146;52.266;7.000;2023-08-08T11:47:40;15.80;99.90
47616;DHT22;69146;52.266;7.000;2023-08-08T11:50:25;15.90;99.90
47616;DHT22;69146;52.266;7.000;2023-08-08T11:53:12;16.00;99.90
47616;DHT22;69146;52.266;7.000;2023-08-08T11:56:03;16.00;99.90
47616;DHT22;69146;52.266;7.000;2023-08-08T11:58:49;16.00;99.90
47616;DHT22;69146;52.266;7.000;2023-08-08T12:01:34;16.30;99.90
47616;DHT22;69146;52.266;7.000;2023-08-08T12:04:20;16.40;99.90
47616;DHT22;69146;52.266;7.000;2023-08-08T12:07:05;16.60;99.90
47616;DHT22;69146;52.266;7.000;2023-08-08T12:09:50;16.90;99.90
47616;DHT22;69146;52.266;7.000;2023-08-08T12:12:36;17.20;99.90
47616;DHT22;69146;52.266;7.000;2023-08-08T12:15:21;17.70;99.90
47616;DHT22;69146;52.266;7.000;2023-08-08T12:18:05;18.00;99.90
47616;DHT22;69146;52.266;7.000;2023-08-08T12:20:50;18.30;99.90
47616;DHT22;69146;52.266;7.000;2023-08-08T12:23:34;18.50;99.90
47616;DHT22;69146;52.266;7.000;2023-08-08T12:26:20;18.60;99.90
47616;DHT22;69146;52.266;7.000;2023-08-08T12:29:05;18.70;99.90
47616;DHT22;69146;52.266;7.000;2023-08-08T12:31:49;18.60;99.90
47616;DHT22;69146;52.266;7.000;2023-08-08T12:34:34;18.60;99.90
47616;DHT22;69146;52.266;7.000;2023-08-08T12:37:19;18.60;99.90
47616;DHT22;69146;52.266;7.000;2023-08-08T12:40:04;18.50;99.90
47616;DHT22;69146;52.266;7.000;2023-08-08T12:42:51;18.50;99.90
47616;DHT22;69146;52.266;7.000;2023-08-08T12:45:36;18.30;99.90
47616;DHT22;69146;52.266;7.000;2023-08-08T12:48:21;18.30;99.90
47616;DHT22;69146;52.266;7.000;2023-08-08T12:51:05;18.60;99.90
47616;DHT22;69146;52.266;7.000;2023-08-08T12:53:51;18.80;99.90
47616;DHT22;69146;52.266;7.000;2023-08-08T12:56:36;19.00;99.90
47616;DHT22;69146;52.266;7.000;2023-08-08T12:59:24;19.30;99.90
47616;DHT22;69146;52.266;7.000;2023-08-08T13:02:08;19.30;99.90
47616;DHT22;69146;52.266;7.000;2023-08-08T13:04:53;19.50;99.90
47616;DHT22;69146;52.266;7.000;2023-08-08T13:07:37;19.60;99.90
47616;DHT22;69146;52.266;7.000;2023-08-08T13:10:21;19.80;99.90
47616;DHT22;69146;52.266;7.000;2023-08-08T13:13:06;19.80;99.90
47616;DHT22;69146;52.266;7.000;2023-08-08T13:15:52;19.80;99.90
47616;DHT22;69146;52.266;7.000;2023-08-08T13:18:37;20.10;99.90
47616;DHT22;69146;52.266;7.000;2023-08-08T13:21:21;20.30;99.90
47616;DHT22;69146;52.266;7.000;2023-08-08T13:24:06;21.00;99.00
47616;DHT22;69146;52.266;7.000;2023-08-08T13:26:50;21.10;98.30
47616;DHT22;69146;52.266;7.000;2023-08-08T13:29:35;21.30;98.20
47616;DHT22;69146;52.266;7.000;2023-08-08T13:32:21;21.40;98.40
47616;DHT22;69146;52.266;7.000;2023-08-08T13:35:06;21.30;97.80
47616;DHT22;69146;52.266;7.000;2023-08-08T13:37:50;21.10;97.50
47616;DHT22;69146;52.266;7.000;2023-08-08T13:40:36;21.00;98.50
47616;DHT22;69146;52.266;7.000;2023-08-08T13:43:20;20.70;97.80
47616;DHT22;69146;52.266;7.000;2023-08-08T13:46:04;20.30;97.90
47616;DHT22;69146;52.266;7.000;2023-08-08T13:48:53;19.90;98.00
47616;DHT22;69146;52.266;7.000;2023-08-08T13:51:37;19.50;99.20
47616;DHT22;69146;52.266;7.000;2023-08-08T13:54:22;19.90;99.10
47616;DHT22;69146;52.266;7.000;2023-08-08T13:57:07;20.30;98.10
47616;DHT22;69146;52.266;7.000;2023-08-08T13:59:51;20.10;97.70
47616;DHT22;69146;52.266;7.000;2023-08-08T14:02:37;19.80;98.50
47616;DHT22;69146;52.266;7.000;2023-08-08T14:05:24;20.90;98.20
47616;DHT22;69146;52.266;7.000;2023-08-08T14:08:08;22.30;96.70
47616;DHT22;69146;52.266;7.000;2023-08-08T14:10:53;22.60;95.80
47616;DHT22;69146;52.266;7.000;2023-08-08T14:13:39;21.80;96.50
47616;DHT22;69146;52.266;7.000;2023-08-08T14:16:25;21.40;96.90
47616;DHT22;69146;52.266;7.000;2023-08-08T14:19:09;20.90;97.50
47616;DHT22;69146;52.266;7.000;2023-08-08T14:21:56;20.80;97.30
47616;DHT22;69146;52.266;7.000;2023-08-08T14:24:40;21.50;97.10
47616;DHT22;69146;52.266;7.000;2023-08-08T14:27:25;21.70;96.80
47616;DHT22;69146;52.266;7.000;2023-08-08T14:30:10;21.30;96.90
47616;DHT22;69146;52.266;7.000;2023-08-08T14:32:55;20.80;97.40
47616;DHT22;69146;52.266;7.000;2023-08-08T14:35:40;20.30;97.70
47616;DHT22;69146;52.266;7.000;2023-08-08T14:38:26;20.40;98.40
47616;DHT22;69146;52.266;7.000;2023-08-08T14:41:10;20.80;98.40
47616;DHT22;69146;52.266;7.000;2023-08-08T14:43:54;21.60;97.10
47616;DHT22;69146;52.266;7.000;2023-08-08T14:46:39;22.60;96.40
47616;DHT22;69146;52.266;7.000;2023-08-08T14:49:24;22.30;96.60
47616;DHT22;69146;52.266;7.000;2023-08-08T14:52:10;21.90;96.30
47616;DHT22;69146;52.266;7.000;2023-08-08T14:54:57;21.40;97.00
47616;DHT22;69146;52.266;7.000;2023-08-08T14:57:41;20.80;98.00
47616;DHT22;69146;52.266;7.000;2023-08-08T15:00:25;20.50;98.60
47616;DHT22;69146;52.266;7.000;2023-08-08T15:03:10;20.00;99.90
47616;DHT22;69146;52.266;7.000;2023-08-08T15:05:54;19.00;99.90
47616;DHT22;69146;52.266;7.000;2023-08-08T15:08:39;18.00;99.90
47616;DHT22;69146;52.266;7.000;2023-08-08T15:11:25;17.30;99.90
47616;DHT22;69146;52.266;7.000;2023-08-08T15:14:11;17.10;99.90
47616;DHT22;69146;52.266;7.000;2023-08-08T15:16:55;17.70;99.90
47616;DHT22;69146;52.266;7.000;2023-08-08T15:19:41;18.60;99.90
47616;DHT22;69146;52.266;7.000;2023-08-08T15:22:25;19.30;99.90
47616;DHT22;69146;52.266;7.000;2023-08-08T15:25:09;19.70;99.90
47616;DHT22;69146;52.266;7.000;2023-08-08T15:27:55;20.10;99.90
47616;DHT22;69146;52.266;7.000;2023-08-08T15:30:40;20.30;99.90
47616;DHT22;69146;52.266;7.000;2023-08-08T15:33:24;19.60;99.90
47616;DHT22;69146;52.266;7.000;2023-08-08T15:36:09;19.10;99.90
47616;DHT22;69146;52.266;7.000;2023-08-08T15:38:53;18.60;99.90
47616;DHT22;69146;52.266;7.000;2023-08-08T15:41:38;18.20;99.90
47616;DHT22;69146;52.266;7.000;2023-08-08T15:44:24;18.00;99.90
47616;DHT22;69146;52.266;7.000;2023-08-08T15:47:08;17.70;99.90
47616;DHT22;69146;52.266;7.000;2023-08-08T15:49:53;17.50;99.90
47616;DHT22;69146;52.266;7.000;2023-08-08T15:52:38;17.10;99.90
47616;DHT22;69146;52.266;7.000;2023-08-08T15:55:23;17.30;99.90
47616;DHT22;69146;52.266;7.000;2023-08-08T15:58:07;17.60;99.90
47616;DHT22;69146;52.266;7.000;2023-08-08T16:00:53;17.60;99.90
47616;DHT22;69146;52.266;7.000;2023-08-08T16:03:39;17.40;99.90
47616;DHT22;69146;52.266;7.000;2023-08-08T16:06:23;17.30;99.90
47616;DHT22;69146;52.266;7.000;2023-08-08T16:09:09;17.60;99.90
47616;DHT22;69146;52.266;7.000;2023-08-08T16:11:54;17.70;99.90
47616;DHT22;69146;52.266;7.000;2023-08-08T16:14:38;17.70;99.90
47616;DHT22;69146;52.266;7.000;2023-08-08T16:17:24;17.50;99.90
47616;DHT22;69146;52.266;7.000;2023-08-08T16:20:09;17.50;99.90
47616;DHT22;69146;52.266;7.000;2023-08-08T16:22:54;17.50;99.90
47616;DHT22;69146;52.266;7.000;2023-08-08T16:25:38;18.00;99.90
47616;DHT22;69146;52.266;7.000;2023-08-08T16:28:23;18.30;99.90
47616;DHT22;69146;52.266;7.000;2023-08-08T16:31:09;18.20;99.90
47616;DHT22;69146;52.266;7.000;2023-08-08T16:33:56;18.00;99.90
47616;DHT22;69146;52.266;7.000;2023-08-08T16:36:41;17.80;99.90
47616;DHT22;69146;52.266;7.000;2023-08-08T16:39:26;17.80;99.90
47616;DHT22;69146;52.266;7.000;2023-08-08T16:42:11;17.60;99.90
47616;DHT22;69146;52.266;7.000;2023-08-08T16:44:55;17.50;99.90
47616;DHT22;69146;52.266;7.000;2023-08-08T16:47:40;17.10;99.90
47616;DHT22;69146;52.266;7.000;2023-08-08T16:50:26;16.70;99.90
47616;DHT22;69146;52.266;7.000;2023-08-08T16:53:10;16.50;99.90
47616;DHT22;69146;52.266;7.000;2023-08-08T16:55:55;16.30;99.90
47616;DHT22;69146;52.266;7.000;2023-08-08T16:58:39;16.30;99.90
47616;DHT22;69146;52.266;7.000;2023-08-08T17:01:24;16.20;99.90
47616;DHT22;69146;52.266;7.000;2023-08-08T17:04:08;16.10;99.90
47616;DHT22;69146;52.266;7.000;2023-08-08T17:06:56;16.20;99.90
47616;DHT22;69146;52.266;7.000;2023-08-08T17:09:41;16.20;99.90
47616;DHT22;69146;52.266;7.000;2023-08-08T17:12:25;16.30;99.90
47616;DHT22;69146;52.266;7.000;2023-08-08T17:15:10;16.30;99.90
47616;DHT22;69146;52.266;7.000;2023-08-08T17:17:54;16.30;99.90
47616;DHT22;69146;52.266;7.000;2023-08-08T17:20:39;16.40;99.90